Time;durP1;ratioP1;P1;durP2;ratioP2;P2;SDS_P1;SDS_P2;PMS_P1;PMS_P2;Temp;Humidity;BMP_temperature;BMP_pressure;BME280_temperature;BME280_humidity;BME280_pressure;Samples;Min_cycle;Max_cycle;Signal;HPM_P1;HPM_P2
2022/01/15 00:00:24;;;;;;;3.28;2.10;;;;;;;-148.81;100.00;67990.72;2102807;28;20060;-72
2022/01/15 00:01:28;;;;;;;5.32;2.20;;;;;;;-148.81;100.00;67990.72;2106012;28;20456;-79
2022/01/15 00:02:33;;;;;;;4.07;2.10;;;;;;;-148.81;100.00;67990.72;2102839;28;20067;-72
2022/01/15 00:03:49;;;;;;;4.10;2.00;;;;;;;-148.81;100.00;67990.72;2102704;28;20052;-72
2022/01/15 00:04:55;;;;;;;3.38;1.88;;;;;;;-148.81;100.00;67990.72;2102923;28;20467;-72
2022/01/15 00:06:04;;;;;;;3.90;1.97;;;;;;;-148.81;100.00;67990.72;2102838;28;20094;-72
2022/01/15 00:07:08;;;;;;;5.43;1.90;;;;;;;-148.81;100.00;67990.72;2103130;28;20306;-77
2022/01/15 00:08:13;;;;;;;3.78;2.15;;;;;;;-148.81;100.00;67990.72;2103043;28;20040;-75
2022/01/15 00:09:18;;;;;;;5.05;2.00;;;;;;;-148.81;100.00;67990.72;2101853;28;20736;-77
2022/01/15 00:10:26;;;;;;;4.15;2.00;;;;;;;-148.81;100.00;67990.72;2102511;28;20067;-76
2022/01/15 00:11:28;;;;;;;4.30;2.15;;;;;;;-148.81;100.00;67990.72;2102471;28;20051;-66
2022/01/15 00:12:39;;;;;;;5.40;1.80;;;;;;;-148.81;100.00;67990.72;2103514;28;20052;-68
2022/01/15 00:13:44;;;;;;;3.35;1.77;;;;;;;-148.81;100.00;67990.72;2101929;28;20396;-67
2022/01/15 00:14:50;;;;;;;3.30;1.90;;;;;;;-148.81;100.00;67990.72;2094145;28;20048;-67
2022/01/15 00:16:03;;;;;;;3.50;2.08;;;;;;;-148.81;100.00;67990.72;2101633;28;20055;-66
2022/01/15 00:17:16;;;;;;;5.13;2.00;;;;;;;-148.81;100.00;67990.72;2102637;28;20066;-66
2022/01/15 00:18:28;;;;;;;3.67;2.03;;;;;;;-148.81;100.00;67990.72;2102404;28;20051;-68
2022/01/15 00:19:41;;;;;;;4.43;1.77;;;;;;;-148.81;100.00;67990.72;2102698;28;20059;-66
2022/01/15 00:20:49;;;;;;;5.65;2.33;;;;;;;-148.81;100.00;67990.72;2102749;28;20055;-66
2022/01/15 00:21:52;;;;;;;3.42;2.05;;;;;;;-148.81;100.00;67990.72;2103125;28;20052;-66
2022/01/15 00:23:00;;;;;;;5.18;2.10;;;;;;;-148.81;100.00;67990.72;2102860;28;20048;-66
2022/01/15 00:24:04;;;;;;;8.07;2.05;;;;;;;-148.81;100.00;67990.72;2096380;28;20044;-66
2022/01/15 00:25:12;;;;;;;4.93;2.00;;;;;;;-148.81;100.00;67990.72;2094190;28;20511;-67
2022/01/15 00:26:17;;;;;;;6.43;3.10;;;;;;;-148.81;100.00;67990.72;2094803;28;20059;-68
2022/01/15 00:27:25;;;;;;;8.50;2.20;;;;;;;-148.81;100.00;67990.72;2094980;28;20412;-67
2022/01/15 00:28:29;;;;;;;6.07;2.60;;;;;;;-148.81;100.00;67990.72;2094263;28;20036;-69
2022/01/15 00:29:36;;;;;;;4.85;2.55;;;;;;;-148.81;100.00;67990.72;2094185;28;20068;-68
2022/01/15 00:30:40;;;;;;;5.78;2.63;;;;;;;-148.81;100.00;67990.72;2094563;28;20053;-70
2022/01/15 00:31:45;;;;;;;7.88;3.17;;;;;;;-148.81;100.00;67990.72;2095215;28;20075;-70
2022/01/15 00:32:51;;;;;;;5.82;2.60;;;;;;;-148.81;100.00;67990.72;2086605;28;20428;-71
2022/01/15 00:33:55;;;;;;;6.40;2.55;;;;;;;-148.81;100.00;67990.72;2086306;28;20546;-70
2022/01/15 00:35:00;;;;;;;6.00;2.72;;;;;;;-148.81;100.00;67990.72;2094418;28;20053;-70
2022/01/15 00:36:10;;;;;;;5.00;2.45;;;;;;;-148.81;100.00;67990.72;2094951;28;20048;-70
2022/01/15 00:37:13;;;;;;;5.90;2.60;;;;;;;-148.81;100.00;67990.72;2095243;28;20048;-69
2022/01/15 00:38:19;;;;;;;7.63;3.10;;;;;;;-148.81;100.00;67990.72;2095296;28;20060;-70
2022/01/15 00:39:23;;;;;;;5.38;2.15;;;;;;;-148.81;100.00;67990.72;2095290;28;20063;-70
2022/01/15 00:40:29;;;;;;;6.15;2.22;;;;;;;-148.81;100.00;67990.72;2099911;28;20048;-70
2022/01/15 00:41:32;;;;;;;6.50;2.42;;;;;;;-148.81;100.00;67990.72;2102778;28;20062;-69
2022/01/15 00:42:40;;;;;;;8.70;2.50;;;;;;;-148.81;100.00;67990.72;2102822;28;20067;-70
2022/01/15 00:43:43;;;;;;;3.67;2.10;;;;;;;-148.81;100.00;67990.72;2103237;28;20063;-70
2022/01/15 00:44:51;;;;;;;9.32;3.35;;;;;;;-148.81;100.00;67990.72;2103115;28;20071;-70
2022/01/15 00:45:58;;;;;;;4.82;2.30;;;;;;;-148.81;100.00;67990.72;2102833;28;20052;-70
2022/01/15 00:47:02;;;;;;;5.93;2.42;;;;;;;-148.81;100.00;67990.72;2103119;28;20385;-72
2022/01/15 00:48:07;;;;;;;4.18;2.05;;;;;;;-148.81;100.00;67990.72;2103002;28;20058;-69
2022/01/15 00:49:10;;;;;;;6.18;3.17;;;;;;;-148.81;100.00;67990.72;2103206;28;20058;-70
2022/01/15 00:50:15;;;;;;;4.70;2.67;;;;;;;-148.81;100.00;67990.72;2105048;28;20055;-70
2022/01/15 00:51:23;;;;;;;7.32;2.45;;;;;;;-148.81;100.00;67990.72;2104714;28;20048;-70
2022/01/15 00:52:28;;;;;;;6.30;2.40;;;;;;;-148.81;100.00;67990.72;2104772;28;20048;-69
2022/01/15 00:53:34;;;;;;;7.03;3.58;;;;;;;-148.81;100.00;67990.72;2104056;28;20079;-70
2022/01/15 00:54:38;;;;;;;4.90;2.53;;;;;;;-148.81;100.00;67990.72;2104515;28;20052;-69
2022/01/15 00:55:43;;;;;;;6.72;2.20;;;;;;;-148.81;100.00;67990.72;2104167;28;20779;-70
2022/01/15 00:56:47;;;;;;;6.07;2.20;;;;;;;-148.81;100.00;67990.72;2104556;28;20048;-70
2022/01/15 00:57:53;;;;;;;4.50;2.30;;;;;;;-148.81;100.00;67990.72;2104876;28;20052;-70
2022/01/15 00:58:58;;;;;;;7.40;2.85;;;;;;;-148.81;100.00;67990.72;2104930;28;20059;-70
2022/01/15 01:00:03;;;;;;;5.78;2.17;;;;;;;-148.81;100.00;67990.72;2104397;28;20048;-69
2022/01/15 01:01:09;;;;;;;4.82;1.90;;;;;;;-148.81;100.00;67990.72;2104235;28;20048;-69
2022/01/15 01:02:13;;;;;;;5.15;1.92;;;;;;;-148.81;100.00;67990.72;2104270;28;20640;-69
2022/01/15 01:03:18;;;;;;;3.38;1.88;;;;;;;-148.81;100.00;67990.72;2104699;28;20056;-70
2022/01/15 01:04:23;;;;;;;5.15;2.53;;;;;;;-148.81;100.00;67990.72;2104929;28;20048;-70
2022/01/15 01:05:27;;;;;;;6.10;2.13;;;;;;;-148.81;100.00;67990.72;2104895;28;20122;-69
2022/01/15 01:06:36;;;;;;;5.32;2.25;;;;;;;-148.81;100.00;67990.72;2104122;28;20048;-70
2022/01/15 01:07:38;;;;;;;6.40;2.45;;;;;;;-148.81;100.00;67990.72;2096008;28;20056;-70
2022/01/15 01:08:44;;;;;;;8.02;2.78;;;;;;;-148.81;100.00;67990.72;2103758;28;20095;-69
2022/01/15 01:10:03;;;;;;;5.60;2.47;;;;;;;-148.81;100.00;67990.72;2104879;28;20056;-71
2022/01/15 01:11:12;;;;;;;7.95;3.08;;;;;;;-148.81;100.00;67990.72;2104927;27;20056;-69
2022/01/15 01:12:26;;;;;;;4.70;2.33;;;;;;;-148.81;100.00;67990.72;2105160;28;20599;-70
2022/01/15 01:20:01;;;;;;;5.25;1.95;;;;;;;-148.81;100.00;67990.72;2105095;28;20048;-71
2022/01/15 01:20:42;;;;;;;6.10;2.22;;;;;;;-148.81;100.00;67990.72;2105044;28;20060;-71
2022/01/15 01:23:04;;;;;;;3.80;1.55;;;;;;;-148.81;100.00;67990.72;2105262;28;20051;-70
2022/01/15 01:24:09;;;;;;;6.38;2.97;;;;;;;-148.81;100.00;67990.72;2097647;28;20056;-70
2022/01/15 01:25:14;;;;;;;5.05;2.10;;;;;;;-148.81;100.00;67990.72;2095306;28;20051;-71
2022/01/15 01:26:26;;;;;;;5.90;2.47;;;;;;;-148.81;100.00;67990.72;2095317;28;20677;-71
2022/01/15 01:27:43;;;;;;;8.38;3.65;;;;;;;-148.81;100.00;67990.72;2095644;28;20052;-70
2022/01/15 01:28:55;;;;;;;6.70;3.50;;;;;;;-148.81;100.00;67990.72;2096262;28;20075;-68
2022/01/15 01:31:22;;;;;;;6.85;2.65;;;;;;;-148.81;100.00;67990.72;2095364;28;20052;-70
2022/01/15 01:33:52;;;;;;;8.98;2.70;;;;;;;-148.81;100.00;67990.72;2096449;28;20052;-70
2022/01/15 01:35:05;;;;;;;5.30;2.28;;;;;;;-148.81;100.00;67990.72;2096835;28;20052;-69
2022/01/15 01:36:18;;;;;;;5.22;1.98;;;;;;;-148.81;100.00;67990.72;2096744;28;20051;-70
2022/01/15 01:37:33;;;;;;;3.72;1.90;;;;;;;-148.81;100.00;67990.72;2095984;28;20056;-70
2022/01/15 01:38:43;;;;;;;7.57;2.15;;;;;;;-148.81;100.00;67990.72;2096899;28;20078;-70
2022/01/15 01:39:50;;;;;;;5.72;2.10;;;;;;;-148.81;100.00;67990.72;2095698;28;20060;-70
2022/01/15 01:40:57;;;;;;;6.07;2.00;;;;;;;-148.81;100.00;67990.72;2095907;28;20052;-70
2022/01/15 01:42:09;;;;;;;5.95;2.03;;;;;;;-148.81;100.00;67990.72;2096285;28;20044;-70
2022/01/15 01:43:42;;;;;;;5.57;2.78;;;;;;;-148.81;100.00;67990.72;2095949;28;20466;-69
2022/01/15 01:45:01;;;;;;;4.72;2.20;;;;;;;-148.81;100.00;67990.72;2095247;28;20446;-71
2022/01/15 01:46:18;;;;;;;5.53;2.25;;;;;;;-148.81;100.00;67990.72;2095193;28;20057;-71
2022/01/15 01:47:28;;;;;;;4.35;1.70;;;;;;;-148.81;100.00;67990.72;2095908;28;20075;-70
2022/01/15 01:48:33;;;;;;;4.35;2.08;;;;;;;-148.81;100.00;67990.72;2096274;28;20045;-72
2022/01/15 01:49:39;;;;;;;6.05;2.60;;;;;;;-148.81;100.00;67990.72;2095655;28;20048;-71
2022/01/15 01:50:42;;;;;;;3.95;2.17;;;;;;;-148.81;100.00;67990.72;2095674;28;20063;-71
2022/01/15 01:51:47;;;;;;;5.13;2.15;;;;;;;-148.81;100.00;67990.72;2095839;28;20052;-72
2022/01/15 01:52:57;;;;;;;4.30;2.20;;;;;;;-148.81;100.00;67990.72;2096641;28;20052;-72
2022/01/15 01:54:03;;;;;;;3.70;2.08;;;;;;;-148.81;100.00;67990.72;2095768;28;20052;-72
2022/01/15 01:55:12;;;;;;;5.47;2.10;;;;;;;-148.81;100.00;67990.72;2095192;28;20126;-72
2022/01/15 01:56:18;;;;;;;3.40;1.55;;;;;;;-148.81;100.00;67990.72;2095992;28;20049;-72
2022/01/15 01:57:24;;;;;;;5.47;2.08;;;;;;;-148.81;100.00;67990.72;2096430;28;20064;-71
2022/01/15 01:58:26;;;;;;;4.13;1.67;;;;;;;-148.81;100.00;67990.72;2095542;28;20053;-72
2022/01/15 01:59:31;;;;;;;6.05;2.08;;;;;;;-148.81;100.00;67990.72;2094990;28;20060;-72
2022/01/15 02:00:35;;;;;;;2.80;1.50;;;;;;;-148.81;100.00;67990.72;2095505;28;20053;-71
2022/01/15 02:01:40;;;;;;;8.00;4.40;;;;;;;-148.81;100.00;67990.72;2095865;28;20517;-72
2022/01/15 02:02:44;;;;;;;5.60;2.45;;;;;;;-148.81;100.00;67990.72;2095335;28;20056;-72
2022/01/15 02:03:49;;;;;;;11.50;8.18;;;;;;;-148.81;100.00;67990.72;2094578;28;20059;-71
2022/01/15 02:04:56;;;;;;;7.30;3.78;;;;;;;-148.81;100.00;67990.72;2095451;28;20044;-72
2022/01/15 02:06:04;;;;;;;8.02;3.95;;;;;;;-148.81;100.00;67990.72;2095335;28;20045;-71
2022/01/15 02:07:11;;;;;;;5.97;3.20;;;;;;;-148.81;100.00;67990.72;2095298;28;20059;-71
2022/01/15 02:08:21;;;;;;;10.82;6.03;;;;;;;-148.81;100.00;67990.72;2094809;28;20064;-70
2022/01/15 02:09:26;;;;;;;7.30;4.00;;;;;;;-148.81;100.00;67990.72;2095014;28;20053;-71
2022/01/15 02:10:32;;;;;;;7.85;3.10;;;;;;;-148.81;100.00;67990.72;2086350;28;20052;-71
2022/01/15 02:11:39;;;;;;;7.22;3.10;;;;;;;-148.81;100.00;67990.72;2094225;28;20056;-71
2022/01/15 02:12:46;;;;;;;7.32;2.92;;;;;;;-148.81;100.00;67990.72;2095491;28;20507;-70
2022/01/15 02:13:52;;;;;;;7.57;3.03;;;;;;;-148.81;100.00;67990.72;2095367;28;20396;-71
2022/01/15 02:14:56;;;;;;;6.25;2.97;;;;;;;-148.81;100.00;67990.72;2095924;28;20052;-71
2022/01/15 02:16:03;;;;;;;7.38;3.60;;;;;;;-148.81;100.00;67990.72;2095670;28;20053;-71
2022/01/15 02:17:06;;;;;;;6.55;2.85;;;;;;;-148.81;100.00;67990.72;2094821;28;20036;-71
2022/01/15 02:18:11;;;;;;;5.22;2.65;;;;;;;-148.81;100.00;67990.72;2094547;28;20146;-72
2022/01/15 02:19:15;;;;;;;6.75;3.47;;;;;;;-148.81;100.00;67990.72;2094761;28;20071;-71
2022/01/15 02:24:28;;;;;;;7.85;3.90;;;;;;;-148.81;100.00;67990.72;2095196;28;20064;-70
2022/01/15 02:25:41;;;;;;;6.30;3.53;;;;;;;-148.81;100.00;67990.72;2094981;28;20057;-72
2022/01/15 02:26:49;;;;;;;6.38;2.80;;;;;;;-148.81;100.00;67990.72;2095692;28;20056;-71
2022/01/15 02:27:58;;;;;;;10.38;4.72;;;;;;;-148.81;100.00;67990.72;2095747;28;20048;-71
2022/01/15 02:29:10;;;;;;;6.45;2.78;;;;;;;-148.81;100.00;67990.72;2095944;28;20064;-72
2022/01/15 02:30:15;;;;;;;5.90;3.70;;;;;;;-148.81;100.00;67990.72;2095658;28;20755;-72
2022/01/15 02:31:22;;;;;;;9.23;3.70;;;;;;;-148.81;100.00;67990.72;2094828;28;20059;-72
2022/01/15 02:32:26;;;;;;;6.85;3.08;;;;;;;-148.81;100.00;67990.72;2095350;28;20048;-72
2022/01/15 02:33:31;;;;;;;6.20;2.75;;;;;;;-148.81;100.00;67990.72;2095365;28;20385;-71
2022/01/15 02:34:39;;;;;;;7.07;3.00;;;;;;;-148.81;100.00;67990.72;2095480;28;20048;-72
2022/01/15 02:35:44;;;;;;;6.28;3.10;;;;;;;-148.81;100.00;67990.72;2094680;28;20048;-72
2022/01/15 02:36:49;;;;;;;7.55;4.32;;;;;;;-148.81;100.00;67990.72;2095115;28;20452;-73
2022/01/15 02:37:53;;;;;;;4.70;2.50;;;;;;;-148.81;100.00;67990.72;2095569;28;20048;-71
2022/01/15 02:38:59;;;;;;;5.00;2.67;;;;;;;-148.81;100.00;67990.72;2095837;28;20060;-71
2022/01/15 02:40:07;;;;;;;5.97;2.80;;;;;;;-148.81;100.00;67990.72;2097211;28;20068;-70
2022/01/15 02:41:12;;;;;;;6.88;2.85;;;;;;;-148.81;100.00;67990.72;2103808;28;20052;-71
2022/01/15 02:42:20;;;;;;;6.80;3.08;;;;;;;-148.81;100.00;67990.72;2103532;28;20039;-72
2022/01/15 02:43:29;;;;;;;5.25;2.60;;;;;;;-148.81;100.00;67990.72;2103838;28;20056;-71
2022/01/15 02:44:38;;;;;;;5.75;2.60;;;;;;;-148.81;100.00;67990.72;2103869;28;20048;-72
2022/01/15 02:45:43;;;;;;;8.10;2.40;;;;;;;-148.81;100.00;67990.72;2101449;28;20060;-71
2022/01/15 02:48:13;;;;;;;5.97;2.90;;;;;;;-148.81;100.00;67990.72;2103896;28;20044;-71
2022/01/15 02:49:18;;;;;;;7.40;2.50;;;;;;;-148.81;100.00;67990.72;2103491;28;20063;-70
2022/01/15 02:50:25;;;;;;;5.75;2.17;;;;;;;-148.81;100.00;67990.72;2103647;28;20048;-70
2022/01/15 02:51:35;;;;;;;5.65;2.00;;;;;;;-148.81;100.00;67990.72;2103619;28;20055;-70
2022/01/15 02:52:42;;;;;;;5.20;2.30;;;;;;;-148.81;100.00;67990.72;2102336;28;20044;-69
2022/01/15 02:55:11;;;;;;;5.97;2.33;;;;;;;-148.81;100.00;67990.72;2103040;28;20052;-70
2022/01/15 02:56:17;;;;;;;5.22;1.95;;;;;;;-148.81;100.00;67990.72;2103228;28;20048;-70
2022/01/15 02:57:23;;;;;;;5.15;2.33;;;;;;;-148.81;100.00;67990.72;2103724;28;20056;-70
2022/01/15 02:58:26;;;;;;;4.72;2.40;;;;;;;-148.81;100.00;67990.72;2103554;28;20067;-70
2022/01/15 02:59:31;;;;;;;4.18;2.22;;;;;;;-148.81;100.00;67990.72;2103656;28;20052;-70
2022/01/15 03:00:36;;;;;;;6.00;2.50;;;;;;;-148.81;100.00;67990.72;2103935;28;20086;-70
2022/01/15 03:01:41;;;;;;;7.88;2.70;;;;;;;-148.81;100.00;67990.72;2104181;28;20052;-70
2022/01/15 03:02:44;;;;;;;5.93;2.20;;;;;;;-148.81;100.00;67990.72;2102559;28;20139;-69
2022/01/15 03:03:49;;;;;;;4.47;2.20;;;;;;;-148.81;100.00;67990.72;2102580;28;20056;-70
2022/01/15 03:04:54;;;;;;;6.55;3.78;;;;;;;-148.81;100.00;67990.72;2103699;28;20663;-70
2022/01/15 03:05:58;;;;;;;5.57;2.47;;;;;;;-148.81;100.00;67990.72;2103668;28;20058;-71
2022/01/15 03:07:07;;;;;;;4.15;2.00;;;;;;;-148.81;100.00;67990.72;2103464;28;20471;-68
2022/01/15 03:08:13;;;;;;;4.90;2.17;;;;;;;-148.81;100.00;67990.72;2104048;28;20084;-70
2022/01/15 03:09:17;;;;;;;6.30;3.20;;;;;;;-148.81;100.00;67990.72;2103690;28;20130;-70
2022/01/15 03:10:24;;;;;;;6.93;2.50;;;;;;;-148.81;100.00;67990.72;2103712;28;20048;-70
2022/01/15 03:11:28;;;;;;;9.43;3.05;;;;;;;-148.81;100.00;67990.72;2102866;28;20165;-70
2022/01/15 03:12:32;;;;;;;6.38;2.40;;;;;;;-148.81;100.00;67990.72;2102617;28;20550;-70
2022/01/15 03:13:44;;;;;;;6.53;3.00;;;;;;;-148.81;100.00;67990.72;2102526;28;20063;-68
2022/01/15 03:14:50;;;;;;;4.30;2.42;;;;;;;-148.81;100.00;67990.72;2103448;28;20056;-69
2022/01/15 03:15:56;;;;;;;7.22;4.10;;;;;;;-148.81;100.00;67990.72;2103981;28;20048;-69
2022/01/15 03:17:00;;;;;;;5.70;3.00;;;;;;;-148.81;100.00;67990.72;2103600;28;20040;-67
2022/01/15 03:18:05;;;;;;;6.95;2.47;;;;;;;-148.81;100.00;67990.72;2103619;28;20538;-70
2022/01/15 03:19:11;;;;;;;5.97;2.92;;;;;;;-148.81;100.00;67990.72;2103335;28;20815;-70
2022/01/15 03:20:18;;;;;;;8.45;2.47;;;;;;;-148.81;100.00;67990.72;2103032;28;20040;-71
2022/01/15 03:21:22;;;;;;;4.85;2.30;;;;;;;-148.81;100.00;67990.72;2103213;28;20075;-71
2022/01/15 03:23:49;;;;;;;7.35;3.40;;;;;;;-148.81;100.00;67990.72;2099818;28;20055;-71
2022/01/15 03:24:54;;;;;;;7.00;5.05;;;;;;;-148.81;100.00;67990.72;2095731;28;20083;-71
2022/01/15 03:25:59;;;;;;;5.70;3.08;;;;;;;-148.81;100.00;67990.72;2095116;28;20041;-71
2022/01/15 03:27:04;;;;;;;5.90;2.67;;;;;;;-148.81;100.00;67990.72;2095511;28;20059;-70
2022/01/15 03:28:09;;;;;;;4.20;2.78;;;;;;;-148.81;100.00;67990.72;2094324;28;20711;-71
2022/01/15 03:29:13;;;;;;;4.75;2.45;;;;;;;-148.81;100.00;67990.72;2087305;28;20368;-71
2022/01/15 03:30:19;;;;;;;5.90;2.38;;;;;;;-148.81;100.00;67990.72;2087135;28;20773;-72
2022/01/15 03:31:23;;;;;;;6.30;2.50;;;;;;;-148.81;100.00;67990.72;2095102;28;20087;-71
2022/01/15 03:32:29;;;;;;;5.03;2.22;;;;;;;-148.81;100.00;67990.72;2094306;28;20053;-72
2022/01/15 03:33:32;;;;;;;8.82;2.60;;;;;;;-148.81;100.00;67990.72;2094241;28;20146;-71
2022/01/15 03:34:37;;;;;;;5.93;2.15;;;;;;;-148.81;100.00;67990.72;2095292;28;20063;-71
2022/01/15 03:35:41;;;;;;;4.13;2.50;;;;;;;-148.81;100.00;67990.72;2095119;28;20052;-71
2022/01/15 03:36:48;;;;;;;6.43;2.63;;;;;;;-148.81;100.00;67990.72;2095755;28;20059;-71
2022/01/15 03:37:54;;;;;;;11.30;6.22;;;;;;;-148.81;100.00;67990.72;2095244;28;20048;-71
2022/01/15 03:38:59;;;;;;;4.30;2.70;;;;;;;-148.81;100.00;67990.72;2095423;28;20412;-71
2022/01/15 03:40:04;;;;;;;7.55;2.53;;;;;;;-148.81;100.00;67990.72;2097410;28;20048;-70
2022/01/15 03:41:09;;;;;;;3.95;2.50;;;;;;;-148.81;100.00;67990.72;2103952;28;20059;-72
2022/01/15 03:42:13;;;;;;;4.82;2.40;;;;;;;-148.81;100.00;67990.72;2103669;28;20392;-72
2022/01/15 03:43:19;;;;;;;5.50;2.30;;;;;;;-148.81;100.00;67990.72;2103670;28;20064;-74
2022/01/15 03:44:24;;;;;;;6.03;3.03;;;;;;;-148.81;100.00;67990.72;2103423;28;20063;-69
2022/01/15 03:45:31;;;;;;;11.05;3.70;;;;;;;-148.81;100.00;67990.72;2102966;28;20052;-71
2022/01/15 03:46:36;;;;;;;8.10;3.08;;;;;;;-148.81;100.00;67990.72;2102778;28;20059;-71
2022/01/15 03:47:40;;;;;;;5.90;2.78;;;;;;;-148.81;100.00;67990.72;2103063;28;20052;-70
2022/01/15 03:48:47;;;;;;;6.47;2.67;;;;;;;-148.81;100.00;67990.72;2103204;28;20052;-71
2022/01/15 03:49:51;;;;;;;4.00;2.17;;;;;;;-148.81;100.00;67990.72;2103885;28;20048;-71
2022/01/15 03:50:57;;;;;;;3.85;2.08;;;;;;;-148.81;100.00;67990.72;2103481;28;20052;-71
2022/01/15 03:52:03;;;;;;;5.20;2.42;;;;;;;-148.81;100.00;67990.72;2103553;28;20347;-71
2022/01/15 03:53:11;;;;;;;5.40;2.03;;;;;;;-148.81;100.00;67990.72;2102975;28;20055;-71
2022/01/15 03:54:17;;;;;;;5.18;2.00;;;;;;;-148.81;100.00;67990.72;2103491;28;20491;-70
2022/01/15 03:55:23;;;;;;;5.82;2.10;;;;;;;-148.81;100.00;67990.72;2103309;28;20052;-71
2022/01/15 03:56:27;;;;;;;5.38;2.00;;;;;;;-148.81;100.00;67990.72;2103863;28;20403;-72
2022/01/15 03:57:32;;;;;;;5.43;2.22;;;;;;;-148.81;100.00;67990.72;2103542;28;20048;-71
2022/01/15 03:58:37;;;;;;;4.72;2.42;;;;;;;-148.81;100.00;67990.72;2103888;28;20056;-71
2022/01/15 03:59:44;;;;;;;4.68;1.92;;;;;;;-148.81;100.00;67990.72;2102901;28;20470;-71
2022/01/15 04:00:51;;;;;;;5.65;2.20;;;;;;;-148.81;100.00;67990.72;2102983;28;20547;-71
2022/01/15 04:01:56;;;;;;;6.47;2.75;;;;;;;-148.81;100.00;67990.72;2103117;28;20048;-71
2022/01/15 04:03:03;;;;;;;6.78;2.78;;;;;;;-148.81;100.00;67990.72;2103255;28;20044;-70
2022/01/15 04:04:08;;;;;;;6.05;2.50;;;;;;;-148.81;100.00;67990.72;2102852;28;20130;-70
2022/01/15 04:05:15;;;;;;;6.40;2.78;;;;;;;-148.81;100.00;67990.72;2102814;28;20060;-70
2022/01/15 04:06:21;;;;;;;6.72;2.58;;;;;;;-148.81;100.00;67990.72;2103808;28;20052;-69
2022/01/15 04:07:25;;;;;;;3.58;1.88;;;;;;;-148.81;100.00;67990.72;2103531;28;20048;-71
2022/01/15 04:08:35;;;;;;;4.57;2.03;;;;;;;-148.81;100.00;67990.72;2103525;28;20059;-71
2022/01/15 04:09:39;;;;;;;5.28;2.17;;;;;;;-148.81;100.00;67990.72;2103659;28;20515;-71
2022/01/15 04:10:45;;;;;;;7.50;3.30;;;;;;;-148.81;100.00;67990.72;2103252;28;20067;-71
2022/01/15 04:11:49;;;;;;;4.63;2.10;;;;;;;-148.81;100.00;67990.72;2103379;28;20055;-71
2022/01/15 04:12:55;;;;;;;4.80;1.90;;;;;;;-148.81;100.00;67990.72;2102765;28;20040;-71
2022/01/15 04:13:58;;;;;;;7.43;2.80;;;;;;;-148.81;100.00;67990.72;2094982;28;20404;-71
2022/01/15 04:15:02;;;;;;;4.10;1.92;;;;;;;-148.81;100.00;67990.72;2103179;28;20043;-71
2022/01/15 04:16:08;;;;;;;3.85;2.17;;;;;;;-148.81;100.00;67990.72;2103195;28;20510;-72
2022/01/15 04:17:11;;;;;;;5.05;1.88;;;;;;;-148.81;100.00;67990.72;2102335;28;20071;-72
2022/01/15 04:18:16;;;;;;;3.67;1.90;;;;;;;-148.81;100.00;67990.72;2102616;28;20048;-71
2022/01/15 04:19:24;;;;;;;7.10;3.05;;;;;;;-148.81;100.00;67990.72;2103918;28;20051;-72
2022/01/15 04:20:28;;;;;;;8.88;3.63;;;;;;;-148.81;100.00;67990.72;2103572;28;20404;-71
2022/01/15 04:21:32;;;;;;;5.28;3.33;;;;;;;-148.81;100.00;67990.72;2103554;28;20491;-72
2022/01/15 04:22:37;;;;;;;8.60;3.53;;;;;;;-148.81;100.00;67990.72;2102981;28;20063;-72
2022/01/15 04:23:43;;;;;;;6.72;3.38;;;;;;;-148.81;100.00;67990.72;2099804;28;20696;-72
2022/01/15 04:24:49;;;;;;;4.13;2.50;;;;;;;-148.81;100.00;67990.72;2096215;28;20056;-71
2022/01/15 04:25:53;;;;;;;8.70;4.55;;;;;;;-148.81;100.00;67990.72;2097095;28;20068;-72
2022/01/15 04:26:58;;;;;;;6.10;3.92;;;;;;;-148.81;100.00;67990.72;2096646;28;20032;-72
2022/01/15 04:28:07;;;;;;;4.03;2.50;;;;;;;-148.81;100.00;67990.72;2096373;28;20052;-72
2022/01/15 04:29:15;;;;;;;6.20;3.17;;;;;;;-148.81;100.00;67990.72;2096350;28;20059;-72
2022/01/15 04:30:22;;;;;;;7.93;3.90;;;;;;;-148.81;100.00;67990.72;2096547;28;20056;-72
2022/01/15 04:31:28;;;;;;;6.82;2.78;;;;;;;-148.81;100.00;67990.72;2096457;28;20049;-72
2022/01/15 04:32:33;;;;;;;5.22;2.88;;;;;;;-148.81;100.00;67990.72;2096493;28;20064;-72
2022/01/15 04:33:40;;;;;;;6.80;3.28;;;;;;;-148.81;100.00;67990.72;2096410;28;20721;-72
2022/01/15 04:34:43;;;;;;;6.97;2.83;;;;;;;-148.81;100.00;67990.72;2096257;28;20045;-70
2022/01/15 04:35:53;;;;;;;7.88;5.65;;;;;;;-148.81;100.00;67990.72;2096111;28;20053;-71
2022/01/15 04:37:06;;;;;;;6.97;3.83;;;;;;;-148.81;100.00;67990.72;2096391;28;20040;-71
2022/01/15 04:38:13;;;;;;;6.03;3.17;;;;;;;-148.81;100.00;67990.72;2095803;28;20059;-71
2022/01/15 04:39:21;;;;;;;9.60;4.05;;;;;;;-148.81;100.00;67990.72;2096291;28;20388;-71
2022/01/15 04:40:25;;;;;;;8.35;4.60;;;;;;;-148.81;100.00;67990.72;2101220;28;20040;-71
2022/01/15 04:41:31;;;;;;;9.68;5.55;;;;;;;-148.81;100.00;67990.72;2104573;28;20052;-71
2022/01/15 04:42:38;;;;;;;7.95;4.25;;;;;;;-148.81;100.00;67990.72;2104434;28;20067;-70
2022/01/15 04:43:43;;;;;;;8.40;3.85;;;;;;;-148.81;100.00;67990.72;2105071;28;20063;-71
2022/01/15 04:44:48;;;;;;;9.48;5.10;;;;;;;-148.81;100.00;67990.72;2104735;28;20052;-69
2022/01/15 04:45:52;;;;;;;6.97;4.25;;;;;;;-148.81;100.00;67990.72;2103724;28;20063;-70
2022/01/15 04:46:59;;;;;;;9.10;4.30;;;;;;;-148.81;100.00;67990.72;2103269;28;20040;-70
2022/01/15 04:48:06;;;;;;;6.50;4.55;;;;;;;-148.81;100.00;67990.72;2103605;28;20056;-70
2022/01/15 04:49:10;;;;;;;8.00;3.80;;;;;;;-148.81;100.00;67990.72;2103603;28;20056;-69
2022/01/15 04:50:16;;;;;;;8.93;3.88;;;;;;;-148.81;100.00;67990.72;2104679;28;20048;-70
2022/01/15 04:51:21;;;;;;;6.80;3.10;;;;;;;-148.81;100.00;67990.72;2104318;28;20052;-69
2022/01/15 04:52:25;;;;;;;5.55;3.60;;;;;;;-148.81;100.00;67990.72;2103506;28;20063;-71
2022/01/15 04:53:32;;;;;;;6.07;3.00;;;;;;;-148.81;100.00;67990.72;2103790;28;20056;-70
2022/01/15 04:54:41;;;;;;;6.15;3.22;;;;;;;-148.81;100.00;67990.72;2103744;28;20047;-70
2022/01/15 04:55:48;;;;;;;6.95;3.95;;;;;;;-148.81;100.00;67990.72;2103254;28;20056;-70
2022/01/15 04:56:51;;;;;;;6.95;4.28;;;;;;;-148.81;100.00;67990.72;2104108;28;20059;-70
2022/01/15 04:57:57;;;;;;;5.60;3.70;;;;;;;-148.81;100.00;67990.72;2104074;28;20051;-69
2022/01/15 04:59:01;;;;;;;6.10;3.65;;;;;;;-148.81;100.00;67990.72;2104640;28;20052;-69
2022/01/15 05:00:08;;;;;;;8.45;4.25;;;;;;;-148.81;100.00;67990.72;2104202;28;20043;-70
2022/01/15 05:01:12;;;;;;;5.55;3.10;;;;;;;-148.81;100.00;67990.72;2104259;28;20055;-72
2022/01/15 05:02:17;;;;;;;5.25;2.70;;;;;;;-148.81;100.00;67990.72;2103150;28;20479;-71
2022/01/15 05:03:22;;;;;;;5.22;2.65;;;;;;;-148.81;100.00;67990.72;2104150;28;20051;-71
2022/01/15 05:04:27;;;;;;;5.05;2.70;;;;;;;-148.81;100.00;67990.72;2104434;28;20051;-71
2022/01/15 05:05:30;;;;;;;5.35;2.85;;;;;;;-148.81;100.00;67990.72;2104863;28;20056;-69
2022/01/15 05:06:36;;;;;;;4.28;2.60;;;;;;;-148.81;100.00;67990.72;2102617;28;20052;-68
2022/01/15 05:07:40;;;;;;;6.47;3.22;;;;;;;-148.81;100.00;67990.72;2101839;28;20142;-68
2022/01/15 05:08:46;;;;;;;7.32;3.08;;;;;;;-148.81;100.00;67990.72;2103698;28;20056;-68
2022/01/15 05:09:51;;;;;;;5.38;3.30;;;;;;;-148.81;100.00;67990.72;2103551;28;20067;-69
2022/01/15 05:10:59;;;;;;;6.07;3.10;;;;;;;-148.81;100.00;67990.72;2096310;28;20061;-68
2022/01/15 05:12:09;;;;;;;5.18;2.90;;;;;;;-148.81;100.00;67990.72;2098626;28;20045;-69
2022/01/15 05:13:15;;;;;;;5.88;2.75;;;;;;;-148.81;100.00;67990.72;2104818;28;20052;-69
2022/01/15 05:14:19;;;;;;;7.03;2.70;;;;;;;-148.81;100.00;67990.72;2099893;28;20044;-70
2022/01/15 05:15:25;;;;;;;11.43;4.07;;;;;;;-148.81;100.00;67990.72;2096176;28;20064;-69
2022/01/15 05:16:29;;;;;;;6.45;3.50;;;;;;;-148.81;100.00;67990.72;2095695;28;20053;-69
2022/01/15 05:17:34;;;;;;;5.65;3.40;;;;;;;-148.81;100.00;67990.72;2095403;28;20373;-69
2022/01/15 05:18:38;;;;;;;8.52;3.70;;;;;;;-148.81;100.00;67990.72;2095549;28;20068;-68
2022/01/15 05:19:44;;;;;;;5.70;3.40;;;;;;;-148.81;100.00;67990.72;2096070;28;20048;-69